createdAt,value
2023-04-07T00:01:03.916Z,71.57
2023-04-07T00:03:52.417Z,70.45
2023-04-07T00:06:43.475Z,70.90
2023-04-07T00:09:31.785Z,71.13
2023-04-07T00:12:20.191Z,72.10
2023-04-07T00:15:09.584Z,71.80
2023-04-07T00:17:59.372Z,71.52
2023-04-07T00:20:47.844Z,71.40
2023-04-07T00:23:36.703Z,70.66
2023-04-07T00:26:27.186Z,70.90
2023-04-07T00:29:15.611Z,70.51
2023-04-07T00:32:04.029Z,72.49
2023-04-07T00:34:53.825Z,72.74
2023-04-07T00:37:42.899Z,73.44
2023-04-07T00:40:31.422Z,72.80
2023-04-07T00:43:19.898Z,73.14
2023-04-07T00:46:08.365Z,72.54
2023-04-07T00:48:56.778Z,71.86
2023-04-07T00:51:47.143Z,72.38
2023-04-07T00:54:35.782Z,73.13
2023-04-07T00:57:25.404Z,72.65
2023-04-07T01:00:14.487Z,72.83
2023-04-07T01:03:07.587Z,72.67
2023-04-07T01:06:01.326Z,73.18
2023-04-07T01:08:55.812Z,73.19
2023-04-07T01:11:48.381Z,73.03
2023-04-07T01:14:43.647Z,73.21
2023-04-07T01:18:01.510Z,72.40
2023-04-07T01:20:51.897Z,72.82
2023-04-07T01:23:53.734Z,73.22
2023-04-07T01:26:42.387Z,74.46
2023-04-07T01:29:40.529Z,74.46
2023-04-07T01:32:28.893Z,74.89
2023-04-07T01:35:17.908Z,73.93
2023-04-07T01:38:07.064Z,76.90
2023-04-07T01:40:55.682Z,76.97
2023-04-07T01:43:45.204Z,78.30
2023-04-07T01:46:36.075Z,77.91
2023-04-07T01:49:24.950Z,77.63
2023-04-07T01:52:13.705Z,78.08
2023-04-07T01:55:02.145Z,77.34
2023-04-07T01:57:51.917Z,78.40
2023-04-07T02:00:42.489Z,77.81
2023-04-07T02:03:41.717Z,77.99
2023-04-07T02:06:36.550Z,77.65
2023-04-07T02:09:25.475Z,77.06
2023-04-07T02:12:16.013Z,77.24
2023-04-07T02:15:14.688Z,76.78
2023-04-07T02:18:04.952Z,78.03
2023-04-07T02:20:55.195Z,78.59
2023-04-07T02:23:43.529Z,79.43
2023-04-07T02:26:36.115Z,79.16
2023-04-07T02:29:24.535Z,79.54
2023-04-07T02:32:12.827Z,79.48
2023-04-07T02:35:01.363Z,79.12
2023-04-07T02:37:51.374Z,78.36
2023-04-07T02:40:39.852Z,78.00
2023-04-07T02:43:28.237Z,78.08
2023-04-07T02:46:16.754Z,78.79
2023-04-07T02:49:05.167Z,78.47
2023-04-07T02:51:53.526Z,78.36
2023-04-07T02:54:43.303Z,77.59
2023-04-07T02:57:33.207Z,77.45
2023-04-07T03:00:24.927Z,77.85
2023-04-07T03:03:57.484Z,77.95
2023-04-07T03:06:47.243Z,77.45
2023-04-07T03:09:40.382Z,77.62
2023-04-07T03:12:30.200Z,77.52
2023-04-07T03:15:20.077Z,76.83
2023-04-07T03:18:12.389Z,76.54
2023-04-07T03:21:03.038Z,76.68
2023-04-07T03:23:52.814Z,76.88
2023-04-07T03:26:41.572Z,76.91
2023-04-07T03:29:41.425Z,77.17
2023-04-07T03:32:32.948Z,76.54
2023-04-07T03:35:21.421Z,77.25
2023-04-07T03:38:09.861Z,77.06
2023-04-07T03:40:58.408Z,77.42
2023-04-07T03:43:46.855Z,76.72
2023-04-07T03:46:37.354Z,76.89
2023-04-07T03:49:25.948Z,76.24
2023-04-07T03:52:15.674Z,77.12
2023-04-07T03:55:08.204Z,76.77
2023-04-07T03:57:56.619Z,78.01
2023-04-07T04:00:47.107Z,78.61
2023-04-07T04:03:38.212Z,79.11
2023-04-07T04:06:39.618Z,79.63
2023-04-07T04:09:48.267Z,78.93
2023-04-07T04:12:36.872Z,78.36
2023-04-07T04:15:30.166Z,79.18
2023-04-07T04:18:19.759Z,79.50
2023-04-07T04:21:10.393Z,80.44
2023-04-07T04:24:02.263Z,80.61
2023-04-07T04:26:51.853Z,81.17
2023-04-07T04:29:40.986Z,81.82
2023-04-07T04:32:32.940Z,81.80
2023-04-07T04:35:21.958Z,83.06
2023-04-07T04:38:25.030Z,84.00
2023-04-07T04:41:24.611Z,85.75
2023-04-07T04:44:13.771Z,84.96
2023-04-07T04:47:03.785Z,84.35
2023-04-07T04:49:53.255Z,84.38
2023-04-07T04:52:42.257Z,84.40
2023-04-07T04:55:40.864Z,85.74
2023-04-07T04:58:29.764Z,85.10
2023-04-07T05:01:19.046Z,85.37
2023-04-07T05:04:15.061Z,85.75
2023-04-07T05:07:09.383Z,85.84
2023-04-07T05:09:57.838Z,85.53
2023-04-07T05:12:47.741Z,85.43
2023-04-07T05:15:36.306Z,86.07
2023-04-07T05:18:27.148Z,85.94
2023-04-07T05:21:15.847Z,85.22
2023-04-07T05:24:04.489Z,85.17
2023-04-07T05:26:55.217Z,84.66
2023-04-07T05:29:44.975Z,84.51
2023-04-07T05:32:42.625Z,84.45
2023-04-07T05:35:40.780Z,84.78
2023-04-07T05:38:29.293Z,84.05
2023-04-07T05:41:21.638Z,84.17
2023-04-07T05:44:12.466Z,83.12
2023-04-07T05:47:05.910Z,82.73
2023-04-07T05:49:54.818Z,82.28
2023-04-07T05:52:43.316Z,82.06
2023-04-07T05:55:43.499Z,82.36
2023-04-07T05:58:35.619Z,81.21
2023-04-07T06:01:26.329Z,80.90
2023-04-07T06:04:18.104Z,81.25
2023-04-07T06:07:09.419Z,80.80
2023-04-07T06:09:58.083Z,80.94
2023-04-07T06:12:47.604Z,80.83
2023-04-07T06:15:36.284Z,80.11
2023-04-07T06:18:24.952Z,79.48
2023-04-07T06:21:14.948Z,79.08
2023-04-07T06:24:03.386Z,78.89
2023-04-07T06:26:51.935Z,79.18
2023-04-07T06:29:42.752Z,78.37
2023-04-07T06:32:31.744Z,78.59
2023-04-07T06:35:20.377Z,77.88
2023-04-07T06:38:11.551Z,78.76
2023-04-07T06:40:59.966Z,78.20
2023-04-07T06:43:51.312Z,77.60
2023-04-07T06:46:40.008Z,77.94
2023-04-07T06:49:28.451Z,77.61
2023-04-07T06:52:16.858Z,77.92
2023-04-07T06:55:07.827Z,78.32
2023-04-07T06:57:56.421Z,79.65
2023-04-07T07:00:47.157Z,79.35
2023-04-07T07:03:35.923Z,78.63
2023-04-07T07:06:24.371Z,77.81
2023-04-07T07:09:12.735Z,78.62
2023-04-07T07:12:04.316Z,78.28
2023-04-07T07:14:52.817Z,76.97
2023-04-07T07:17:41.518Z,76.67
2023-04-07T07:20:30.501Z,75.98
2023-04-07T07:23:18.950Z,76.39
2023-04-07T07:26:07.387Z,75.60
2023-04-07T07:28:57.140Z,75.48
2023-04-07T07:31:45.529Z,76.08
2023-04-07T07:34:34.312Z,75.23
2023-04-07T07:37:22.687Z,74.97
2023-04-07T07:40:11.490Z,74.23
2023-04-07T07:42:59.897Z,75.13
2023-04-07T07:45:49.700Z,75.74
2023-04-07T07:48:38.090Z,74.66
2023-04-07T07:51:28.039Z,73.29
2023-04-07T07:54:16.403Z,72.88
2023-04-07T07:57:06.173Z,73.79
2023-04-07T07:59:54.659Z,73.39
2023-04-07T08:02:44.507Z,73.00
2023-04-07T08:05:33.066Z,72.71
2023-04-07T08:08:21.435Z,72.52
2023-04-07T08:11:09.822Z,72.49
2023-04-07T08:13:58.197Z,71.96
2023-04-07T08:16:47.032Z,72.20
2023-04-07T08:19:36.853Z,71.15
2023-04-07T08:22:25.314Z,71.74
2023-04-07T08:25:13.702Z,70.17
2023-04-07T08:28:02.055Z,70.21
2023-04-07T08:30:50.500Z,70.83
2023-04-07T08:33:38.935Z,70.08
2023-04-07T08:36:30.229Z,69.82
2023-04-07T08:39:19.598Z,70.20
2023-04-07T08:42:08.845Z,69.75
2023-04-07T08:45:00.205Z,70.57
2023-04-07T08:47:50.981Z,69.74
2023-04-07T08:50:39.825Z,69.92
2023-04-07T08:53:36.975Z,70.27
2023-04-07T08:56:25.999Z,70.86
2023-04-07T08:59:15.737Z,69.11
2023-04-07T09:02:06.254Z,68.52
2023-04-07T09:04:54.692Z,69.25
2023-04-07T09:07:44.172Z,67.86
2023-04-07T09:10:33.919Z,67.22
2023-04-07T09:13:22.367Z,67.15
2023-04-07T09:16:10.783Z,67.79
2023-04-07T09:18:59.347Z,67.11
2023-04-07T09:21:52.405Z,66.66
2023-04-07T09:24:41.663Z,64.87
2023-04-07T09:27:31.446Z,66.04
2023-04-07T09:30:20.164Z,64.20
2023-04-07T09:33:08.635Z,63.17
2023-04-07T09:35:57.701Z,62.68
2023-04-07T09:38:46.715Z,64.49
2023-04-07T09:41:35.133Z,64.33
2023-04-07T09:44:25.545Z,61.18
2023-04-07T09:47:14.010Z,64.01
2023-04-07T09:50:07.013Z,62.04
2023-04-07T09:52:55.639Z,64.60
2023-04-07T09:55:46.946Z,62.84
2023-04-07T09:58:35.440Z,62.20
2023-04-07T10:01:25.445Z,60.06
2023-04-07T10:04:14.130Z,61.98
2023-04-07T10:07:03.680Z,60.10
2023-04-07T10:09:52.106Z,60.57
2023-04-07T10:12:41.555Z,63.04
2023-04-07T10:15:30.438Z,61.79
2023-04-07T10:18:22.005Z,60.14
2023-04-07T10:21:15.300Z,59.24
2023-04-07T10:24:09.659Z,59.72
2023-04-07T10:27:02.479Z,58.74
2023-04-07T10:29:52.642Z,59.46
2023-04-07T10:32:47.694Z,60.84
2023-04-07T10:36:08.313Z,60.66
2023-04-07T10:39:22.015Z,58.69
2023-04-07T10:42:46.451Z,57.63
2023-04-07T10:45:59.652Z,61.03
2023-04-07T10:49:09.837Z,57.37
2023-04-07T10:52:25.095Z,58.30
2023-04-07T10:55:36.230Z,59.57
2023-04-07T10:58:25.283Z,59.89
2023-04-07T11:01:21.804Z,57.13
2023-04-07T11:04:10.245Z,57.18
2023-04-07T11:06:59.716Z,58.94
2023-04-07T11:09:49.430Z,55.31
2023-04-07T11:12:37.831Z,55.06
2023-04-07T11:15:26.401Z,53.87
2023-04-07T11:18:19.155Z,55.03
2023-04-07T11:21:08.502Z,56.91
2023-04-07T11:23:56.906Z,54.41
2023-04-07T11:26:47.963Z,54.28
2023-04-07T11:29:38.463Z,55.57
2023-04-07T11:32:29.766Z,55.63
2023-04-07T11:35:18.477Z,52.74
2023-04-07T11:38:09.086Z,54.10
2023-04-07T11:40:58.140Z,54.19
2023-04-07T11:43:48.107Z,54.29
2023-04-07T11:46:37.317Z,53.25
2023-04-07T11:49:28.002Z,54.11
2023-04-07T11:52:16.677Z,53.35
2023-04-07T11:55:06.012Z,51.86
2023-04-07T11:57:54.497Z,53.35
2023-04-07T12:00:56.064Z,51.37
2023-04-07T12:03:57.262Z,51.36
2023-04-07T12:06:46.902Z,53.69
2023-04-07T12:09:37.512Z,53.92
2023-04-07T12:12:29.485Z,53.72
2023-04-07T12:15:17.919Z,52.21
2023-04-07T12:18:07.674Z,49.76
2023-04-07T12:20:56.524Z,49.99
2023-04-07T12:23:44.943Z,49.62
2023-04-07T12:26:33.353Z,52.02
2023-04-07T12:29:21.769Z,48.73
2023-04-07T12:32:10.370Z,50.96
2023-04-07T12:35:00.170Z,49.02
2023-04-07T12:37:49.997Z,50.61
2023-04-07T12:40:38.742Z,50.90
2023-04-07T12:43:27.153Z,50.76
2023-04-07T12:46:15.546Z,50.32
2023-04-07T12:49:04.075Z,50.81
2023-04-07T12:51:53.824Z,52.85
2023-04-07T12:54:42.980Z,52.67
2023-04-07T12:57:31.423Z,52.37
2023-04-07T13:00:19.813Z,52.13
2023-04-07T13:03:08.508Z,50.05
2023-04-07T13:06:01.172Z,49.41
2023-04-07T13:08:52.183Z,50.33
2023-04-07T13:11:40.782Z,48.70
2023-04-07T13:14:29.158Z,50.19
2023-04-07T13:17:18.759Z,49.76
2023-04-07T13:20:08.496Z,49.45
2023-04-07T13:23:07.477Z,47.13
2023-04-07T13:25:57.960Z,49.78
2023-04-07T13:28:47.929Z,47.70
2023-04-07T13:31:36.374Z,48.96
2023-04-07T13:34:24.789Z,51.76
2023-04-07T13:37:14.213Z,48.72
2023-04-07T13:40:02.807Z,47.67
2023-04-07T13:42:52.613Z,47.89
2023-04-07T13:45:41.325Z,48.86
2023-04-07T13:48:29.775Z,48.45
2023-04-07T13:51:18.256Z,48.43
2023-04-07T13:54:06.883Z,48.18
2023-04-07T13:56:55.297Z,49.70
2023-04-07T13:59:45.051Z,49.41
2023-04-07T14:02:34.325Z,49.70
2023-04-07T14:05:22.945Z,49.80
2023-04-07T14:08:11.252Z,49.30
2023-04-07T14:10:59.607Z,49.04
2023-04-07T14:13:48.179Z,49.06
2023-04-07T14:16:37.956Z,48.99
2023-04-07T14:19:26.384Z,48.25
2023-04-07T14:22:15.437Z,48.29
2023-04-07T14:25:04.731Z,49.11
2023-04-07T14:27:53.363Z,49.01
2023-04-07T14:30:41.710Z,49.81
2023-04-07T14:33:31.416Z,49.98
2023-04-07T14:36:19.796Z,49.47
2023-04-07T14:39:08.955Z,49.78
2023-04-07T14:41:57.338Z,50.90
2023-04-07T14:44:45.743Z,51.09
2023-04-07T14:47:34.193Z,50.53
2023-04-07T14:50:24.687Z,50.53
2023-04-07T14:53:13.120Z,51.07
2023-04-07T14:56:05.372Z,51.12
2023-04-07T14:58:53.741Z,50.70
2023-04-07T15:01:42.212Z,51.42
2023-04-07T15:04:32.095Z,50.94
2023-04-07T15:07:21.906Z,50.98
2023-04-07T15:10:11.097Z,50.79
2023-04-07T15:12:59.447Z,50.84
2023-04-07T15:15:47.845Z,51.12
2023-04-07T15:18:36.240Z,50.09
2023-04-07T15:21:24.628Z,51.35
2023-04-07T15:24:16.071Z,51.90
2023-04-07T15:27:04.924Z,51.90
2023-04-07T15:29:53.446Z,51.17
2023-04-07T15:32:41.876Z,52.82
2023-04-07T15:35:30.325Z,50.96
2023-04-07T15:38:18.735Z,51.31
2023-04-07T15:41:08.499Z,51.82
2023-04-07T15:43:57.584Z,51.55
2023-04-07T15:46:46.066Z,52.33
2023-04-07T15:49:34.591Z,51.85
2023-04-07T15:52:22.999Z,49.92
2023-04-07T15:55:11.804Z,51.07
2023-04-07T15:58:01.850Z,51.89
2023-04-07T16:00:50.336Z,51.99
2023-04-07T16:03:38.819Z,51.93
2023-04-07T16:06:27.417Z,51.80
2023-04-07T16:09:15.763Z,50.55
2023-04-07T16:12:04.165Z,51.97
2023-04-07T16:14:56.425Z,51.38
2023-04-07T16:17:48.409Z,51.46
2023-04-07T16:20:36.942Z,51.80
2023-04-07T16:23:25.454Z,51.29
2023-04-07T16:26:13.856Z,51.37
2023-04-07T16:29:02.217Z,51.48
2023-04-07T16:31:52.105Z,52.20
2023-04-07T16:34:40.507Z,51.88
2023-04-07T16:37:30.293Z,52.14
2023-04-07T16:40:18.626Z,52.01
2023-04-07T16:43:09.026Z,52.52
2023-04-07T16:46:00.022Z,52.85
2023-04-07T16:48:50.390Z,53.23
2023-04-07T16:51:38.758Z,52.65
2023-04-07T16:54:27.125Z,53.21
2023-04-07T16:57:15.812Z,52.76
2023-04-07T17:00:05.836Z,52.66
2023-04-07T17:02:54.290Z,53.60
2023-04-07T17:05:47.156Z,53.74
2023-04-07T17:08:36.473Z,53.59
2023-04-07T17:11:24.839Z,53.75
2023-04-07T17:14:13.193Z,53.82
2023-04-07T17:17:02.174Z,54.27
2023-04-07T17:19:50.642Z,54.20
2023-04-07T17:22:40.401Z,54.51
2023-04-07T17:25:28.789Z,54.55
2023-04-07T17:28:17.209Z,53.32
2023-04-07T17:31:05.758Z,54.42
2023-04-07T17:33:54.166Z,55.01
2023-04-07T17:36:42.918Z,55.23
2023-04-07T17:39:32.679Z,55.47
2023-04-07T17:42:21.022Z,55.69
2023-04-07T17:45:10.828Z,55.50
2023-04-07T17:48:00.991Z,55.62
2023-04-07T17:50:49.697Z,56.04
2023-04-07T17:53:38.022Z,55.65
2023-04-07T17:56:27.884Z,55.53
2023-04-07T17:59:16.234Z,55.77
2023-04-07T18:02:09.177Z,56.28
2023-04-07T18:05:01.153Z,56.71
2023-04-07T18:07:49.630Z,57.36
2023-04-07T18:10:38.157Z,57.09
2023-04-07T18:13:27.933Z,58.41
2023-04-07T18:16:21.899Z,58.12
2023-04-07T18:19:10.765Z,58.55
2023-04-07T18:22:00.103Z,58.59
2023-04-07T18:24:48.901Z,58.32
2023-04-07T18:27:37.835Z,59.23
2023-04-07T18:30:27.606Z,60.21
2023-04-07T18:33:15.933Z,61.13
2023-04-07T18:36:07.862Z,60.99
2023-04-07T18:38:57.682Z,61.02
2023-04-07T18:41:47.405Z,61.76
2023-04-07T18:44:35.903Z,61.16
2023-04-07T18:47:27.393Z,61.72
2023-04-07T18:50:15.957Z,61.83
2023-04-07T18:53:04.377Z,62.26
2023-04-07T18:55:53.057Z,62.13
2023-04-07T18:58:44.893Z,63.09
2023-04-07T19:01:33.380Z,63.71
2023-04-07T19:04:24.882Z,64.95
2023-04-07T19:07:13.310Z,64.91
2023-04-07T19:10:01.631Z,65.95
2023-04-07T19:12:49.997Z,64.71
2023-04-07T19:15:39.440Z,65.07
2023-04-07T19:18:29.268Z,64.67
2023-04-07T19:21:19.695Z,64.92
2023-04-07T19:24:08.125Z,65.74
2023-04-07T19:26:57.851Z,66.08
2023-04-07T19:29:46.223Z,68.50
2023-04-07T19:32:34.674Z,67.96
2023-04-07T19:35:23.082Z,68.37
2023-04-07T19:38:12.861Z,68.33
2023-04-07T19:41:01.479Z,68.53
2023-04-07T19:43:50.034Z,68.38
2023-04-07T19:46:38.450Z,68.53
2023-04-07T19:49:26.777Z,69.37
2023-04-07T19:52:15.574Z,68.89
2023-04-07T19:55:07.900Z,69.22
2023-04-07T19:57:57.265Z,69.93
2023-04-07T20:00:48.496Z,71.51
2023-04-07T20:03:39.584Z,70.49
2023-04-07T20:06:28.193Z,70.19
2023-04-07T20:09:16.557Z,69.92
2023-04-07T20:12:06.287Z,69.62
2023-04-07T20:14:54.686Z,69.61
2023-04-07T20:17:43.065Z,69.27
2023-04-07T20:20:31.448Z,69.21
2023-04-07T20:23:22.594Z,70.14
2023-04-07T20:26:10.979Z,69.15
2023-04-07T20:29:00.717Z,68.98
2023-04-07T20:31:49.093Z,68.87
2023-04-07T20:34:37.404Z,68.95
2023-04-07T20:37:27.848Z,69.01
2023-04-07T20:40:16.214Z,69.72
2023-04-07T20:43:04.763Z,69.85
2023-04-07T20:45:54.717Z,69.90
2023-04-07T20:48:43.179Z,70.51
2023-04-07T20:51:31.517Z,70.46
2023-04-07T20:54:19.866Z,70.23
2023-04-07T20:57:08.186Z,71.08
2023-04-07T20:59:56.520Z,70.16
2023-04-07T21:02:46.948Z,69.87
2023-04-07T21:05:35.549Z,70.24
2023-04-07T21:08:25.436Z,70.99
2023-04-07T21:11:13.753Z,71.15
2023-04-07T21:14:02.122Z,71.71
2023-04-07T21:16:50.496Z,72.41
2023-04-07T21:19:40.969Z,71.58
2023-04-07T21:22:29.616Z,71.25
2023-04-07T21:25:18.107Z,71.22
2023-04-07T21:28:07.344Z,71.27
2023-04-07T21:30:56.804Z,70.95
2023-04-07T21:33:46.508Z,71.04
2023-04-07T21:36:36.158Z,71.19
2023-04-07T21:39:24.550Z,71.80
2023-04-07T21:42:12.866Z,72.53
2023-04-07T21:45:01.186Z,72.65
2023-04-07T21:47:49.731Z,72.05
2023-04-07T21:50:38.154Z,72.75
2023-04-07T21:53:27.878Z,72.35
2023-04-07T21:56:16.422Z,73.18
2023-04-07T21:59:04.860Z,72.81
2023-04-07T22:01:53.419Z,73.18
2023-04-07T22:04:41.997Z,73.06
2023-04-07T22:07:30.666Z,74.21
2023-04-07T22:10:20.513Z,74.51
2023-04-07T22:13:08.950Z,74.98
2023-04-07T22:15:57.475Z,74.95
2023-04-07T22:18:45.929Z,74.94
2023-04-07T22:21:35.995Z,74.61
2023-04-07T22:24:24.448Z,75.92
2023-04-07T22:27:14.645Z,77.38
2023-04-07T22:30:03.757Z,76.33
2023-04-07T22:32:52.254Z,76.14
2023-04-07T22:35:40.812Z,76.08
2023-04-07T22:38:29.220Z,77.68
2023-04-07T22:41:17.603Z,77.73
2023-04-07T22:44:07.397Z,77.68
2023-04-07T22:46:56.245Z,77.64
2023-04-07T22:49:45.579Z,77.18
2023-04-07T22:52:33.929Z,77.86
2023-04-07T22:55:22.285Z,78.07
2023-04-07T22:58:10.644Z,78.22
2023-04-07T23:01:00.575Z,78.65
2023-04-07T23:03:49.020Z,78.74
2023-04-07T23:06:37.399Z,78.89
2023-04-07T23:09:25.782Z,78.12
2023-04-07T23:12:14.112Z,78.29
2023-04-07T23:15:02.630Z,79.34
2023-04-07T23:17:52.614Z,80.28
2023-04-07T23:20:41.092Z,80.16
2023-04-07T23:23:29.465Z,80.96
2023-04-07T23:26:17.787Z,81.12
2023-04-07T23:29:06.184Z,80.79
2023-04-07T23:31:54.594Z,79.50
2023-04-07T23:34:44.342Z,80.33
2023-04-07T23:37:32.708Z,80.88
2023-04-07T23:40:21.329Z,82.50
2023-04-07T23:43:09.665Z,81.95
2023-04-07T23:45:58.005Z,80.61
2023-04-07T23:48:46.360Z,79.72
2023-04-07T23:51:36.570Z,79.76
2023-04-07T23:54:24.943Z,79.09
2023-04-07T23:57:13.272Z,80.24
